Time;durP1;ratioP1;P1;durP2;ratioP2;P2;SDS_P1;SDS_P2;PMS_P1;PMS_P2;Temp;Humidity;BMP_temperature;BMP_pressure;BME280_temperature;BME280_humidity;BME280_pressure;Samples;Min_cycle;Max_cycle;Signal;HPM_P1;HPM_P2
2024/02/02 00:00:50;;;;;;;20.80;18.80;;;;;;;;;;5123871;28;20472;-82
2024/02/02 00:03:19;;;;;;;20.65;19.05;;;;;;;;;;5123937;28;20924;-82
2024/02/02 00:05:46;;;;;;;24.60;19.33;;;;;;;;;;5123486;28;20243;-82
2024/02/02 00:08:13;;;;;;;21.10;18.95;;;;;;;;;;5122755;28;20202;-82
2024/02/02 00:10:44;;;;;;;21.30;19.05;;;;;;;;;;5122999;28;20214;-82
2024/02/02 00:13:11;;;;;;;23.33;19.58;;;;;;;;;;5102951;28;20238;-83
2024/02/02 00:15:40;;;;;;;29.02;21.13;;;;;;;;;;5119024;28;20695;-83
2024/02/02 00:18:07;;;;;;;22.55;19.27;;;;;;;;;;5123016;28;20599;-83
2024/02/02 00:20:35;;;;;;;24.43;20.47;;;;;;;;;;5122464;28;20311;-82
2024/02/02 00:23:04;;;;;;;27.85;20.50;;;;;;;;;;5122358;28;20428;-81
2024/02/02 00:25:31;;;;;;;26.13;20.23;;;;;;;;;;5122569;28;20257;-81
2024/02/02 00:27:58;;;;;;;21.13;19.02;;;;;;;;;;5122519;28;20524;-83
2024/02/02 00:30:25;;;;;;;25.15;19.75;;;;;;;;;;5122242;28;20290;-82
2024/02/02 00:32:52;;;;;;;30.08;21.13;;;;;;;;;;5102844;28;20234;-82
2024/02/02 00:35:19;;;;;;;24.85;19.55;;;;;;;;;;5102849;28;20226;-82
2024/02/02 00:37:47;;;;;;;30.73;19.85;;;;;;;;;;5102374;28;20255;-83
2024/02/02 00:40:15;;;;;;;22.70;19.80;;;;;;;;;;5102604;28;20233;-82
2024/02/02 00:42:43;;;;;;;29.20;20.98;;;;;;;;;;5102864;28;20206;-83
2024/02/02 00:45:11;;;;;;;31.15;22.30;;;;;;;;;;5102469;28;20233;-82
2024/02/02 00:47:38;;;;;;;28.63;22.98;;;;;;;;;;5102434;28;20207;-84
2024/02/02 00:50:06;;;;;;;30.67;22.90;;;;;;;;;;5102390;28;20230;-82
2024/02/02 00:52:33;;;;;;;32.83;25.63;;;;;;;;;;5102683;28;20211;-82
2024/02/02 00:55:02;;;;;;;33.88;23.60;;;;;;;;;;5102653;28;20264;-83
2024/02/02 00:57:30;;;;;;;21.08;19.17;;;;;;;;;;5100962;28;20229;-83
2024/02/02 00:59:57;;;;;;;34.50;23.40;;;;;;;;;;5102555;28;20733;-83
2024/02/02 01:02:27;;;;;;;39.63;24.67;;;;;;;;;;5103428;28;20205;-82
2024/02/02 01:04:53;;;;;;;35.20;24.90;;;;;;;;;;5106610;28;20218;-83
2024/02/02 01:07:23;;;;;;;26.85;23.10;;;;;;;;;;5105422;28;20203;-82
2024/02/02 01:09:50;;;;;;;31.00;23.83;;;;;;;;;;5106533;28;20325;-84
2024/02/02 01:12:19;;;;;;;26.30;22.20;;;;;;;;;;5106111;28;20193;-83
2024/02/02 01:14:46;;;;;;;28.80;23.80;;;;;;;;;;5106340;28;20231;-83
2024/02/02 01:17:13;;;;;;;37.88;24.90;;;;;;;;;;5105772;28;20206;-83
2024/02/02 01:19:40;;;;;;;33.63;25.52;;;;;;;;;;5105465;28;20242;-84
2024/02/02 01:22:07;;;;;;;27.70;22.70;;;;;;;;;;5106152;28;20256;-82
2024/02/02 01:24:35;;;;;;;26.13;22.03;;;;;;;;;;5105757;28;20221;-83
2024/02/02 01:27:02;;;;;;;29.70;23.98;;;;;;;;;;5105611;28;20453;-83
2024/02/02 01:29:33;;;;;;;34.00;27.65;;;;;;;;;;5105672;28;20309;-83
2024/02/02 01:32:00;;;;;;;29.63;23.77;;;;;;;;;;5105742;28;20191;-83
2024/02/02 01:34:27;;;;;;;24.67;22.33;;;;;;;;;;5105767;28;20555;-83
2024/02/02 01:36:54;;;;;;;34.23;27.20;;;;;;;;;;5104976;28;20195;-82
2024/02/02 01:39:21;;;;;;;40.20;25.23;;;;;;;;;;5105224;28;20464;-82
2024/02/02 01:41:49;;;;;;;39.30;27.90;;;;;;;;;;5105871;28;20948;-83
2024/02/02 01:44:16;;;;;;;37.55;24.88;;;;;;;;;;5105785;28;20207;-83
2024/02/02 01:46:47;;;;;;;38.53;26.50;;;;;;;;;;5105405;28;20231;-82
2024/02/02 01:49:14;;;;;;;27.67;23.20;;;;;;;;;;5105187;28;20227;-82
2024/02/02 01:51:42;;;;;;;30.93;27.43;;;;;;;;;;5105587;28;20839;-82
2024/02/02 01:54:09;;;;;;;40.58;27.88;;;;;;;;;;5104760;28;20449;-83
2024/02/02 01:56:36;;;;;;;26.25;23.65;;;;;;;;;;5104442;28;20206;-83
2024/02/02 01:59:04;;;;;;;29.50;23.60;;;;;;;;;;5105141;28;20227;-83
2024/02/02 02:01:32;;;;;;;30.40;26.02;;;;;;;;;;5105578;28;20445;-84
2024/02/02 02:04:00;;;;;;;36.10;28.90;;;;;;;;;;5105226;28;20233;-81
2024/02/02 02:06:28;;;;;;;24.07;21.47;;;;;;;;;;5105470;28;20495;-83
2024/02/02 02:08:56;;;;;;;39.22;26.42;;;;;;;;;;5104826;28;20453;-83
2024/02/02 02:11:23;;;;;;;35.13;26.87;;;;;;;;;;5112298;28;20255;-82
2024/02/02 02:13:50;;;;;;;35.10;25.53;;;;;;;;;;5125111;28;20489;-83
2024/02/02 02:16:17;;;;;;;34.00;25.70;;;;;;;;;;5125026;28;20444;-83
2024/02/02 02:18:44;;;;;;;33.27;27.83;;;;;;;;;;5125770;28;20496;-83
2024/02/02 02:21:32;;;;;;;37.27;27.40;;;;;;;;;;5105095;28;20453;-82
2024/02/02 02:24:01;;;;;;;35.87;27.17;;;;;;;;;;5099230;28;20516;-82
2024/02/02 02:26:29;;;;;;;37.57;27.60;;;;;;;;;;5103956;28;20480;-83
2024/02/02 02:28:56;;;;;;;31.80;25.35;;;;;;;;;;5105307;28;20536;-83
2024/02/02 02:31:24;;;;;;;30.90;27.02;;;;;;;;;;5111270;28;20297;-82
2024/02/02 02:33:51;;;;;;;36.60;28.60;;;;;;;;;;5124537;28;20202;-83
2024/02/02 02:36:20;;;;;;;48.47;29.90;;;;;;;;;;5124378;28;20415;-82
2024/02/02 02:38:48;;;;;;;30.00;24.80;;;;;;;;;;5123732;28;20203;-83
2024/02/02 02:41:16;;;;;;;32.42;25.70;;;;;;;;;;5104481;28;20436;-83
2024/02/02 02:43:44;;;;;;;31.88;25.63;;;;;;;;;;5104449;28;20741;-83
2024/02/02 02:46:11;;;;;;;42.35;27.65;;;;;;;;;;5103515;28;20246;-82
2024/02/02 02:48:38;;;;;;;27.05;24.00;;;;;;;;;;5118390;28;20202;-83
2024/02/02 02:51:06;;;;;;;32.97;25.00;;;;;;;;;;5124356;28;20198;-83
2024/02/02 02:53:33;;;;;;;37.13;25.70;;;;;;;;;;5123880;28;20820;-83
2024/02/02 02:56:00;;;;;;;29.42;24.20;;;;;;;;;;5124317;28;20475;-84
2024/02/02 02:58:29;;;;;;;25.17;20.58;;;;;;;;;;5124521;28;20212;-83
2024/02/02 03:00:56;;;;;;;30.75;21.80;;;;;;;;;;5125076;28;20241;-83
2024/02/02 03:03:23;;;;;;;29.23;23.60;;;;;;;;;;5124018;28;20596;-83
2024/02/02 03:05:50;;;;;;;32.03;24.60;;;;;;;;;;5124345;28;20480;-83
2024/02/02 03:08:17;;;;;;;37.70;27.13;;;;;;;;;;5123762;28;20444;-83
2024/02/02 03:10:44;;;;;;;39.90;25.30;;;;;;;;;;5123871;28;20422;-82
2024/02/02 03:13:12;;;;;;;35.83;27.08;;;;;;;;;;5123913;28;20452;-83
2024/02/02 03:15:41;;;;;;;28.60;24.67;;;;;;;;;;5123575;28;20660;-83
2024/02/02 03:18:10;;;;;;;29.35;25.48;;;;;;;;;;5122844;28;20452;-83
2024/02/02 03:20:37;;;;;;;36.28;27.45;;;;;;;;;;5123709;28;20253;-83
2024/02/02 03:23:04;;;;;;;27.35;23.77;;;;;;;;;;5123328;28;20209;-83
2024/02/02 03:25:32;;;;;;;30.17;25.80;;;;;;;;;;5122841;28;20222;-83
2024/02/02 03:27:59;;;;;;;28.08;24.60;;;;;;;;;;5123067;28;20448;-83
2024/02/02 03:30:27;;;;;;;36.47;25.13;;;;;;;;;;5122597;28;20283;-83
2024/02/02 03:32:55;;;;;;;27.55;24.17;;;;;;;;;;5114221;28;20615;-82
2024/02/02 03:35:24;;;;;;;24.90;21.67;;;;;;;;;;5105453;28;20207;-83
2024/02/02 03:37:53;;;;;;;27.75;24.25;;;;;;;;;;5103416;28;20198;-82
2024/02/02 03:40:20;;;;;;;25.67;23.15;;;;;;;;;;5103895;28;20674;-84
2024/02/02 03:42:47;;;;;;;25.92;23.55;;;;;;;;;;5103299;28;20207;-83
2024/02/02 03:45:15;;;;;;;26.10;23.42;;;;;;;;;;5103127;28;20207;-83
2024/02/02 03:47:42;;;;;;;31.10;22.27;;;;;;;;;;5103176;28;20234;-83
2024/02/02 03:50:12;;;;;;;24.00;21.90;;;;;;;;;;5103670;28;20445;-83
2024/02/02 03:52:39;;;;;;;24.27;21.77;;;;;;;;;;5103944;28;20448;-83
2024/02/02 03:55:06;;;;;;;24.73;22.38;;;;;;;;;;5103753;28;20758;-83
2024/02/02 03:57:33;;;;;;;26.08;23.38;;;;;;;;;;5101969;28;20222;-83
2024/02/02 04:00:01;;;;;;;31.30;24.77;;;;;;;;;;5103301;28;20223;-83
2024/02/02 04:02:28;;;;;;;24.50;22.10;;;;;;;;;;5103391;28;20460;-82
2024/02/02 04:04:55;;;;;;;24.70;22.20;;;;;;;;;;5103830;28;20474;-82
2024/02/02 04:07:24;;;;;;;24.65;22.05;;;;;;;;;;5102362;28;20226;-82
2024/02/02 04:09:52;;;;;;;26.23;23.65;;;;;;;;;;5102415;28;20227;-83
2024/02/02 04:12:20;;;;;;;26.08;23.73;;;;;;;;;;5110845;27;20206;-83
2024/02/02 04:14:46;;;;;;;31.92;25.10;;;;;;;;;;5103531;28;20305;-81
2024/02/02 04:17:14;;;;;;;26.13;23.52;;;;;;;;;;5102235;28;20233;-82
2024/02/02 04:19:41;;;;;;;26.88;23.92;;;;;;;;;;5102240;28;20223;-83
2024/02/02 04:22:08;;;;;;;33.53;24.43;;;;;;;;;;5102175;28;20203;-82
2024/02/02 04:24:37;;;;;;;34.05;24.50;;;;;;;;;;5102892;28;20498;-82
2024/02/02 04:27:04;;;;;;;29.60;24.40;;;;;;;;;;5102024;28;20222;-83
2024/02/02 04:29:31;;;;;;;29.60;25.75;;;;;;;;;;5101915;28;20495;-82
2024/02/02 04:31:58;;;;;;;27.10;24.40;;;;;;;;;;5111333;28;20605;-82
2024/02/02 04:34:25;;;;;;;26.40;24.13;;;;;;;;;;5118450;28;20445;-83
2024/02/02 04:36:53;;;;;;;25.27;22.87;;;;;;;;;;5103247;28;20244;-83
2024/02/02 04:39:20;;;;;;;33.33;24.42;;;;;;;;;;5106791;28;20480;-83
2024/02/02 04:41:51;;;;;;;30.20;23.57;;;;;;;;;;5107144;28;20203;-83
2024/02/02 04:44:20;;;;;;;21.98;20.40;;;;;;;;;;5120301;28;20524;-82
2024/02/02 04:46:47;;;;;;;28.20;24.00;;;;;;;;;;5126524;28;20214;-83
2024/02/02 04:49:14;;;;;;;27.30;24.83;;;;;;;;;;5127778;28;20229;-83
2024/02/02 04:51:42;;;;;;;27.48;23.90;;;;;;;;;;5127339;28;20251;-82
2024/02/02 04:54:10;;;;;;;26.65;24.13;;;;;;;;;;5108255;28;20240;-83
2024/02/02 04:56:37;;;;;;;27.45;24.58;;;;;;;;;;5126522;28;20202;-82
2024/02/02 04:59:05;;;;;;;25.87;23.60;;;;;;;;;;5125807;28;20221;-82
2024/02/02 05:01:32;;;;;;;28.15;24.10;;;;;;;;;;5127059;28;20497;-82
2024/02/02 05:04:00;;;;;;;33.77;30.30;;;;;;;;;;5126609;28;20207;-82
2024/02/02 05:06:27;;;;;;;97.87;66.30;;;;;;;;;;5125862;28;20480;-82
2024/02/02 05:08:55;;;;;;;24.07;21.80;;;;;;;;;;5126974;28;20471;-82
2024/02/02 05:11:22;;;;;;;27.10;24.47;;;;;;;;;;5126523;28;20496;-83
2024/02/02 05:13:51;;;;;;;148.98;97.85;;;;;;;;;;5126620;28;20475;-82
2024/02/02 05:16:20;;;;;;;32.72;29.30;;;;;;;;;;5125551;28;20206;-82
2024/02/02 05:18:47;;;;;;;98.07;69.50;;;;;;;;;;5126251;28;20251;-82
2024/02/02 05:21:14;;;;;;;37.10;25.77;;;;;;;;;;5126165;28;20464;-83
2024/02/02 05:23:41;;;;;;;37.40;25.70;;;;;;;;;;5126701;28;20206;-82
2024/02/02 05:26:09;;;;;;;32.87;26.70;;;;;;;;;;5122287;28;20483;-82
2024/02/02 05:28:36;;;;;;;27.43;24.60;;;;;;;;;;5118736;28;20451;-83
2024/02/02 05:31:03;;;;;;;23.43;21.83;;;;;;;;;;5125892;28;20452;-82
2024/02/02 05:33:32;;;;;;;26.50;24.10;;;;;;;;;;5126101;28;20519;-82
2024/02/02 05:35:59;;;;;;;31.48;25.92;;;;;;;;;;5125688;28;20411;-84
2024/02/02 05:38:28;;;;;;;27.65;24.77;;;;;;;;;;5126035;28;20206;-83
2024/02/02 05:40:56;;;;;;;35.47;25.23;;;;;;;;;;5125663;28;20226;-82
2024/02/02 05:43:24;;;;;;;26.97;24.07;;;;;;;;;;5123637;28;20202;-82
2024/02/02 05:45:52;;;;;;;28.38;25.60;;;;;;;;;;5109747;28;20452;-82
2024/02/02 05:48:20;;;;;;;30.45;23.80;;;;;;;;;;5118832;28;20209;-82
2024/02/02 05:50:48;;;;;;;33.28;24.17;;;;;;;;;;5105695;28;20264;-83
2024/02/02 05:53:15;;;;;;;21.63;19.63;;;;;;;;;;5105520;28;20233;-82
2024/02/02 05:55:43;;;;;;;27.03;24.27;;;;;;;;;;5105653;28;20448;-82
2024/02/02 05:58:10;;;;;;;26.33;23.73;;;;;;;;;;5104475;28;20480;-83
2024/02/02 06:00:37;;;;;;;24.97;22.23;;;;;;;;;;5104660;28;20271;-83
2024/02/02 06:03:05;;;;;;;22.38;20.40;;;;;;;;;;5113850;28;20489;-83
2024/02/02 06:05:33;;;;;;;22.47;20.40;;;;;;;;;;5115488;28;20251;-82
2024/02/02 06:08:02;;;;;;;26.70;23.35;;;;;;;;;;5125371;28;20483;-81
2024/02/02 06:10:29;;;;;;;35.97;24.88;;;;;;;;;;5125512;28;20226;-81
2024/02/02 06:12:56;;;;;;;26.05;23.50;;;;;;;;;;5108720;28;20365;-81
2024/02/02 06:15:23;;;;;;;25.70;22.70;;;;;;;;;;5124063;28;20210;-81
2024/02/02 06:17:50;;;;;;;23.00;21.00;;;;;;;;;;5111625;28;20206;-82
2024/02/02 06:20:18;;;;;;;25.13;22.90;;;;;;;;;;5105100;28;20238;-82
2024/02/02 06:22:45;;;;;;;22.93;20.50;;;;;;;;;;5109574;28;20509;-83
2024/02/02 06:25:14;;;;;;;24.75;22.40;;;;;;;;;;5125416;28;20937;-82
2024/02/02 06:27:41;;;;;;;23.17;20.85;;;;;;;;;;5124294;28;20255;-82
2024/02/02 06:30:08;;;;;;;26.20;20.10;;;;;;;;;;5106942;28;20223;-82
2024/02/02 06:32:38;;;;;;;21.95;20.42;;;;;;;;;;5110111;28;20459;-83
2024/02/02 06:35:07;;;;;;;23.27;21.05;;;;;;;;;;5122637;28;20214;-82
2024/02/02 06:37:34;;;;;;;20.95;19.20;;;;;;;;;;5104553;28;20210;-82
2024/02/02 06:40:03;;;;;;;23.17;21.20;;;;;;;;;;5105218;28;20300;-81
2024/02/02 06:42:32;;;;;;;23.38;20.98;;;;;;;;;;5104263;28;20952;-82
2024/02/02 06:44:59;;;;;;;22.63;20.80;;;;;;;;;;5110457;28;20213;-82
2024/02/02 06:47:26;;;;;;;23.33;19.92;;;;;;;;;;5123758;28;20222;-79
2024/02/02 06:49:53;;;;;;;24.97;22.70;;;;;;;;;;5124190;28;20693;-81
2024/02/02 06:52:21;;;;;;;26.63;22.50;;;;;;;;;;5125455;28;20436;-81
2024/02/02 06:54:48;;;;;;;21.95;20.23;;;;;;;;;;5124793;28;20277;-82
2024/02/02 06:57:16;;;;;;;24.42;22.02;;;;;;;;;;5121289;28;20210;-81
2024/02/02 06:59:45;;;;;;;24.87;21.40;;;;;;;;;;5104362;28;20229;-81
2024/02/02 07:02:18;;;;;;;26.10;21.00;;;;;;;;;;5120691;28;20777;-82
2024/02/02 07:04:46;;;;;;;24.07;21.67;;;;;;;;;;5124955;28;20432;-82
2024/02/02 07:07:13;;;;;;;22.50;20.80;;;;;;;;;;5122736;28;20513;-80
2024/02/02 07:09:40;;;;;;;22.63;20.23;;;;;;;;;;5114827;28;20468;-79
2024/02/02 07:12:09;;;;;;;20.70;18.70;;;;;;;;;;5114800;28;20475;-79
2024/02/02 07:14:59;;;;;;;21.87;19.73;;;;;;;;;;5115017;28;20210;-79
2024/02/02 07:17:36;;;;;;;20.70;18.70;;;;;;;;;;5110419;28;20426;-79
2024/02/02 07:20:04;;;;;;;20.57;18.63;;;;;;;;;;5115073;28;20880;-78
2024/02/02 07:22:37;;;;;;;23.63;21.60;;;;;;;;;;5114939;28;20440;-80
2024/02/02 07:25:05;;;;;;;21.43;19.33;;;;;;;;;;5105245;28;20207;-79
2024/02/02 07:27:46;;;;;;;23.07;20.77;;;;;;;;;;5093314;28;21051;-80
2024/02/02 07:30:14;;;;;;;21.00;18.80;;;;;;;;;;5115076;28;20467;-79
2024/02/02 07:32:42;;;;;;;20.07;18.77;;;;;;;;;;5114986;28;20557;-79
2024/02/02 07:35:18;;;;;;;18.60;17.30;;;;;;;;;;5114680;28;20466;-79
2024/02/02 07:37:47;;;;;;;22.35;20.27;;;;;;;;;;5114524;28;20439;-81
2024/02/02 07:40:40;;;;;;;23.77;21.47;;;;;;;;;;5114516;28;20226;-78
2024/02/02 07:43:07;;;;;;;31.93;21.07;;;;;;;;;;5113964;28;20417;-79
2024/02/02 07:45:34;;;;;;;23.65;20.55;;;;;;;;;;5093965;28;20562;-79
2024/02/02 07:48:02;;;;;;;22.70;20.37;;;;;;;;;;5093495;28;20299;-78
2024/02/02 07:50:29;;;;;;;24.00;19.40;;;;;;;;;;5093844;28;20469;-79
2024/02/02 07:52:56;;;;;;;22.25;19.90;;;;;;;;;;5094430;28;20502;-78
2024/02/02 07:55:23;;;;;;;20.83;19.13;;;;;;;;;;5095645;28;20256;-78
2024/02/02 07:57:50;;;;;;;23.47;20.97;;;;;;;;;;5113649;28;20462;-80
2024/02/02 08:00:18;;;;;;;21.53;20.00;;;;;;;;;;5109397;28;20488;-78
2024/02/02 08:02:46;;;;;;;28.60;21.73;;;;;;;;;;5092685;28;20824;-78
2024/02/02 08:05:14;;;;;;;23.30;21.17;;;;;;;;;;5092809;28;20419;-78
2024/02/02 08:07:41;;;;;;;22.20;20.00;;;;;;;;;;5092887;28;20926;-80
2024/02/02 08:10:09;;;;;;;20.27;18.75;;;;;;;;;;5092837;28;20525;-79
2024/02/02 08:12:38;;;;;;;22.00;20.10;;;;;;;;;;5097407;28;20272;-82
2024/02/02 08:15:05;;;;;;;22.80;21.00;;;;;;;;;;5093701;28;20438;-81
2024/02/02 08:17:33;;;;;;;22.63;20.97;;;;;;;;;;5092584;28;20203;-79
2024/02/02 08:19:59;;;;;;;26.33;21.20;;;;;;;;;;5105941;28;20504;-79
2024/02/02 08:22:30;;;;;;;20.30;18.95;;;;;;;;;;5112853;28;20444;-78
2024/02/02 08:24:57;;;;;;;22.20;20.02;;;;;;;;;;5113171;28;20210;-79
2024/02/02 08:27:24;;;;;;;23.07;20.63;;;;;;;;;;5112193;28;20261;-79
2024/02/02 08:29:52;;;;;;;21.40;19.90;;;;;;;;;;5111644;28;20536;-79
2024/02/02 08:32:19;;;;;;;23.23;20.97;;;;;;;;;;5095375;28;20214;-80
2024/02/02 08:34:47;;;;;;;22.70;21.00;;;;;;;;;;5104067;28;20505;-79
2024/02/02 08:37:15;;;;;;;25.57;23.07;;;;;;;;;;5099123;28;20867;-80
2024/02/02 08:39:44;;;;;;;21.93;20.03;;;;;;;;;;5093212;28;20473;-78
2024/02/02 08:42:18;;;;;;;21.25;19.90;;;;;;;;;;5091254;28;20855;-75
2024/02/02 08:44:45;;;;;;;21.60;19.90;;;;;;;;;;5094773;28;20207;-80
2024/02/02 08:47:12;;;;;;;22.90;20.67;;;;;;;;;;5109126;28;20972;-80
2024/02/02 08:49:47;;;;;;;22.93;20.67;;;;;;;;;;5115179;28;20456;-80
2024/02/02 08:52:25;;;;;;;21.40;19.80;;;;;;;;;;5094897;28;20460;-81
2024/02/02 08:54:54;;;;;;;22.03;20.50;;;;;;;;;;5100524;28;20465;-81
2024/02/02 08:57:34;;;;;;;25.77;21.60;;;;;;;;;;5114765;28;20528;-81
2024/02/02 09:00:05;;;;;;;25.33;20.17;;;;;;;;;;5105410;28;20476;-81
2024/02/02 09:02:54;;;;;;;24.30;22.13;;;;;;;;;;5094950;28;20512;-81
2024/02/02 09:05:22;;;;;;;24.87;22.40;;;;;;;;;;5072967;28;20448;-83
2024/02/02 09:07:52;;;;;;;21.48;19.65;;;;;;;;;;5097743;28;20975;-81
2024/02/02 09:10:52;;;;;;;22.20;20.33;;;;;;;;;;5098146;28;20223;-80
2024/02/02 09:13:21;;;;;;;23.08;20.95;;;;;;;;;;5099092;28;20491;-85
2024/02/02 09:15:48;;;;;;;22.20;20.13;;;;;;;;;;5098581;28;20203;-81
2024/02/02 09:18:24;;;;;;;23.55;20.98;;;;;;;;;;5096761;28;20466;-81
2024/02/02 09:20:52;;;;;;;21.00;19.00;;;;;;;;;;5095303;28;20234;-81
2024/02/02 09:23:20;;;;;;;22.77;20.47;;;;;;;;;;5096436;28;20478;-81
2024/02/02 09:25:48;;;;;;;20.27;19.08;;;;;;;;;;5099868;28;20422;-82
2024/02/02 09:28:37;;;;;;;24.67;22.47;;;;;;;;;;5099420;28;20227;-82
2024/02/02 09:31:06;;;;;;;22.50;20.40;;;;;;;;;;5100013;28;20517;-81
2024/02/02 09:33:45;;;;;;;20.87;19.27;;;;;;;;;;5099403;28;20938;-83
2024/02/02 09:36:12;;;;;;;22.97;20.80;;;;;;;;;;5100050;28;20490;-82
2024/02/02 09:38:40;;;;;;;22.10;20.25;;;;;;;;;;5105554;28;20471;-77
2024/02/02 09:41:24;;;;;;;23.23;21.20;;;;;;;;;;5114068;28;20214;-74
2024/02/02 09:43:59;;;;;;;25.30;22.83;;;;;;;;;;5113638;28;20919;-78
2024/02/02 09:46:28;;;;;;;24.30;22.10;;;;;;;;;;5095110;28;20508;-79
2024/02/02 09:49:00;;;;;;;22.70;20.90;;;;;;;;;;5092773;28;20476;-77
2024/02/02 09:51:32;;;;;;;22.63;21.00;;;;;;;;;;5095228;28;20487;-77
2024/02/02 09:54:21;;;;;;;22.40;20.33;;;;;;;;;;5092834;28;20436;-80
2024/02/02 09:56:58;;;;;;;22.47;20.97;;;;;;;;;;5088044;28;20445;-75
2024/02/02 09:59:29;;;;;;;24.57;22.10;;;;;;;;;;5111673;28;20548;-75
2024/02/02 10:02:03;;;;;;;26.70;22.60;;;;;;;;;;5113608;28;20475;-76
2024/02/02 10:04:37;;;;;;;22.42;20.58;;;;;;;;;;5112273;28;20434;-75
2024/02/02 10:07:11;;;;;;;24.53;22.00;;;;;;;;;;5112889;28;20569;-76
2024/02/02 10:09:50;;;;;;;25.43;23.07;;;;;;;;;;5113572;28;20855;-76
2024/02/02 10:12:24;;;;;;;22.27;20.30;;;;;;;;;;5110985;28;20951;-78
2024/02/02 10:15:09;;;;;;;28.20;25.10;;;;;;;;;;5113840;28;20439;-76
2024/02/02 10:17:44;;;;;;;24.00;22.00;;;;;;;;;;5112795;28;20460;-75
2024/02/02 10:20:20;;;;;;;22.83;21.10;;;;;;;;;;5113514;28;20520;-76
2024/02/02 10:22:56;;;;;;;22.47;20.87;;;;;;;;;;5113626;28;20436;-75
2024/02/02 10:25:34;;;;;;;27.00;23.90;;;;;;;;;;5113024;28;20883;-76
2024/02/02 10:28:12;;;;;;;24.20;21.73;;;;;;;;;;5112852;28;20479;-75
2024/02/02 10:30:44;;;;;;;23.20;21.03;;;;;;;;;;5113378;28;20470;-75
2024/02/02 10:33:19;;;;;;;25.37;22.83;;;;;;;;;;5113216;28;20447;-76
2024/02/02 10:35:52;;;;;;;24.27;22.07;;;;;;;;;;5112983;28;20431;-74
2024/02/02 10:38:25;;;;;;;25.23;23.20;;;;;;;;;;5112562;28;20446;-74
2024/02/02 10:40:57;;;;;;;26.37;23.87;;;;;;;;;;5112577;28;21364;-76
2024/02/02 10:43:34;;;;;;;25.53;23.07;;;;;;;;;;5112793;28;20432;-76
2024/02/02 10:46:07;;;;;;;21.63;20.33;;;;;;;;;;5114211;28;20908;-79
2024/02/02 10:48:52;;;;;;;23.47;21.43;;;;;;;;;;5118219;28;20472;-77
2024/02/02 10:51:25;;;;;;;26.27;23.70;;;;;;;;;;5111793;28;20990;-73
2024/02/02 10:53:59;;;;;;;27.60;24.80;;;;;;;;;;5114596;28;20439;-76
2024/02/02 10:56:30;;;;;;;29.23;25.53;;;;;;;;;;5116011;28;20438;-80
2024/02/02 10:59:05;;;;;;;24.27;22.13;;;;;;;;;;5116312;28;20470;-82
2024/02/02 11:01:38;;;;;;;32.40;24.10;;;;;;;;;;5102516;28;20452;-81
2024/02/02 11:04:09;;;;;;;23.77;21.87;;;;;;;;;;5102251;28;20456;-83
2024/02/02 11:06:41;;;;;;;25.17;23.20;;;;;;;;;;5103330;28;20532;-81
2024/02/02 11:09:24;;;;;;;23.87;21.93;;;;;;;;;;5111851;28;20491;-80
2024/02/02 11:11:56;;;;;;;27.80;24.80;;;;;;;;;;5097094;28;20451;-82
2024/02/02 11:14:29;;;;;;;30.10;23.70;;;;;;;;;;5103058;28;20481;-81
2024/02/02 11:16:59;;;;;;;24.57;22.07;;;;;;;;;;5103640;28;20464;-80
2024/02/02 11:19:34;;;;;;;22.23;20.63;;;;;;;;;;5103621;28;20472;-80
2024/02/02 11:22:08;;;;;;;27.60;24.90;;;;;;;;;;5103655;28;20864;-80
2024/02/02 11:24:38;;;;;;;23.47;21.97;;;;;;;;;;5103829;28;20506;-79
2024/02/02 11:27:06;;;;;;;23.13;21.33;;;;;;;;;;5102596;28;20468;-80
2024/02/02 11:29:42;;;;;;;24.37;22.00;;;;;;;;;;5111010;28;20492;-80
2024/02/02 11:32:23;;;;;;;28.53;25.60;;;;;;;;;;5104623;28;20475;-80
2024/02/02 11:34:52;;;;;;;27.00;24.13;;;;;;;;;;5112499;28;20497;-80
2024/02/02 11:37:26;;;;;;;24.90;22.83;;;;;;;;;;5109069;28;20486;-80
2024/02/02 11:39:59;;;;;;;31.00;24.93;;;;;;;;;;5108584;28;20790;-82
2024/02/02 11:42:26;;;;;;;29.80;25.37;;;;;;;;;;5112634;28;20750;-80
2024/02/02 11:44:56;;;;;;;25.23;22.97;;;;;;;;;;5121987;28;20436;-80
2024/02/02 11:47:24;;;;;;;20.77;19.47;;;;;;;;;;5120816;28;20467;-81
2024/02/02 11:49:55;;;;;;;25.03;22.67;;;;;;;;;;5114248;28;20462;-78
2024/02/02 11:52:27;;;;;;;28.07;25.00;;;;;;;;;;5113957;28;20440;-78
2024/02/02 11:54:58;;;;;;;26.43;24.03;;;;;;;;;;5111741;28;20996;-79
2024/02/02 11:57:26;;;;;;;25.47;23.30;;;;;;;;;;5111250;28;20765;-78
2024/02/02 11:59:58;;;;;;;24.60;22.63;;;;;;;;;;5110121;28;20517;-77
2024/02/02 12:02:34;;;;;;;34.40;26.67;;;;;;;;;;5111552;28;20886;-78
2024/02/02 12:05:02;;;;;;;26.10;23.73;;;;;;;;;;5111027;28;20472;-79
2024/02/02 12:07:35;;;;;;;29.70;26.83;;;;;;;;;;5110978;28;20496;-78
2024/02/02 12:10:03;;;;;;;27.00;23.73;;;;;;;;;;5110363;28;21041;-78
2024/02/02 12:12:33;;;;;;;31.10;26.53;;;;;;;;;;5111478;28;20468;-77
2024/02/02 12:15:02;;;;;;;25.17;23.10;;;;;;;;;;5111167;28;20446;-78
2024/02/02 12:17:29;;;;;;;31.87;26.17;;;;;;;;;;5110363;28;20423;-78
2024/02/02 12:19:57;;;;;;;28.10;25.70;;;;;;;;;;5110803;28;20446;-78
2024/02/02 12:22:29;;;;;;;25.63;23.60;;;;;;;;;;5111455;28;20430;-78
2024/02/02 12:24:55;;;;;;;26.93;24.73;;;;;;;;;;5111408;28;20432;-77
2024/02/02 12:27:23;;;;;;;28.77;26.07;;;;;;;;;;5109089;28;20958;-77
2024/02/02 12:29:50;;;;;;;28.80;26.33;;;;;;;;;;5108304;28;20553;-78
2024/02/02 12:32:18;;;;;;;28.37;25.83;;;;;;;;;;5090844;28;20859;-77
2024/02/02 12:34:47;;;;;;;28.07;25.47;;;;;;;;;;5091054;28;20444;-78
2024/02/02 12:37:15;;;;;;;28.03;23.60;;;;;;;;;;5089519;28;20514;-78
2024/02/02 12:39:42;;;;;;;27.90;25.20;;;;;;;;;;5090619;28;20469;-78
2024/02/02 12:42:09;;;;;;;25.17;22.50;;;;;;;;;;5092608;28;20449;-77
2024/02/02 12:44:37;;;;;;;33.13;23.97;;;;;;;;;;5111593;28;21099;-78
2024/02/02 12:47:06;;;;;;;25.40;22.97;;;;;;;;;;5111078;28;20448;-79
2024/02/02 12:49:36;;;;;;;28.40;25.57;;;;;;;;;;5111694;28;20466;-78
2024/02/02 12:52:03;;;;;;;31.07;25.50;;;;;;;;;;5111369;28;20480;-79
2024/02/02 12:54:30;;;;;;;26.77;24.20;;;;;;;;;;5108079;28;20506;-79
2024/02/02 12:56:58;;;;;;;24.73;22.63;;;;;;;;;;5096234;28;21028;-78
2024/02/02 12:59:25;;;;;;;29.23;24.33;;;;;;;;;;5115507;28;20468;-78
2024/02/02 13:01:54;;;;;;;24.57;22.37;;;;;;;;;;5118566;28;20436;-81
2024/02/02 13:04:22;;;;;;;26.37;23.90;;;;;;;;;;5105781;28;20449;-81
2024/02/02 13:06:50;;;;;;;24.40;22.40;;;;;;;;;;5108583;28;20435;-83
2024/02/02 13:09:19;;;;;;;28.27;24.77;;;;;;;;;;5125586;28;20509;-83
2024/02/02 13:11:47;;;;;;;24.03;22.03;;;;;;;;;;5124893;28;20429;-86
2024/02/02 13:14:14;;;;;;;24.23;22.53;;;;;;;;;;5125938;28;20444;-87
2024/02/02 13:16:42;;;;;;;28.37;25.90;;;;;;;;;;5121428;28;20843;-78
2024/02/02 13:19:24;;;;;;;23.07;21.33;;;;;;;;;;5120988;28;20474;-80
2024/02/02 13:22:02;;;;;;;29.00;26.40;;;;;;;;;;5106258;28;20848;-80
2024/02/02 13:24:30;;;;;;;28.07;25.67;;;;;;;;;;5124677;28;20446;-82
2024/02/02 13:27:05;;;;;;;28.37;25.73;;;;;;;;;;5125370;28;20468;-81
2024/02/02 13:29:34;;;;;;;30.77;27.80;;;;;;;;;;5119529;28;20504;-82
2024/02/02 13:32:01;;;;;;;28.87;26.00;;;;;;;;;;5119656;28;20387;-82
2024/02/02 13:34:29;;;;;;;30.30;27.47;;;;;;;;;;5119025;28;20919;-84
2024/02/02 13:37:02;;;;;;;27.03;24.53;;;;;;;;;;5120088;28;20410;-84
2024/02/02 13:39:29;;;;;;;30.20;27.00;;;;;;;;;;5120407;28;20454;-77
2024/02/02 13:42:01;;;;;;;28.87;26.10;;;;;;;;;;5116106;28;20411;-76
2024/02/02 13:44:30;;;;;;;30.87;27.67;;;;;;;;;;5116040;28;20922;-76
2024/02/02 13:46:59;;;;;;;25.10;23.23;;;;;;;;;;5114053;28;20525;-76
2024/02/02 13:49:28;;;;;;;30.80;27.73;;;;;;;;;;5115676;28;20479;-78
2024/02/02 13:51:56;;;;;;;29.73;27.27;;;;;;;;;;5115060;28;20495;-80
2024/02/02 13:54:24;;;;;;;28.73;26.03;;;;;;;;;;5114873;28;20460;-76
2024/02/02 13:56:52;;;;;;;26.47;24.43;;;;;;;;;;5113187;28;20447;-76
2024/02/02 13:59:19;;;;;;;30.13;27.10;;;;;;;;;;5113831;28;20478;-77
2024/02/02 14:01:47;;;;;;;30.17;27.10;;;;;;;;;;5114002;28;20863;-77
2024/02/02 14:04:14;;;;;;;33.77;30.63;;;;;;;;;;5114158;28;20497;-74
2024/02/02 14:06:41;;;;;;;35.00;29.90;;;;;;;;;;5114863;28;20822;-77
2024/02/02 14:09:21;;;;;;;35.13;30.47;;;;;;;;;;5112931;28;20540;-76
2024/02/02 14:11:50;;;;;;;28.70;26.27;;;;;;;;;;5113508;28;20436;-78
2024/02/02 14:14:24;;;;;;;41.13;33.10;;;;;;;;;;5113021;28;20539;-78
2024/02/02 14:16:51;;;;;;;31.67;28.57;;;;;;;;;;5112757;28;20608;-78
2024/02/02 14:19:19;;;;;;;27.33;25.03;;;;;;;;;;5113120;28;20463;-77
2024/02/02 14:21:47;;;;;;;30.07;24.27;;;;;;;;;;5113388;28;20774;-78
2024/02/02 14:24:15;;;;;;;30.40;27.27;;;;;;;;;;5113299;28;20924;-77
2024/02/02 14:26:50;;;;;;;32.43;29.37;;;;;;;;;;5112359;28;20458;-78
2024/02/02 14:29:17;;;;;;;34.53;30.97;;;;;;;;;;5112229;28;20510;-78